Time;durP1;ratioP1;P1;durP2;ratioP2;P2;SDS_P1;SDS_P2;PMS_P1;PMS_P2;Temp;Humidity;BMP_temperature;BMP_pressure;BME280_temperature;BME280_humidity;BME280_pressure;Samples;Min_cycle;Max_cycle;Signal;HPM_P1;HPM_P2
2021/12/05 00:23:30;;;;;;;39.45;16.20;;;;;;;;;;5044433;28;20041;-81
2021/12/05 00:26:00;;;;;;;33.97;15.30;;;;;;;;;;5041391;28;20083;-80
2021/12/05 00:31:31;;;;;;;32.47;15.10;;;;;;;;;;5046225;28;20063;-82
2021/12/05 00:44:55;;;;;;;38.20;16.58;;;;;;;;;;5045280;28;20376;-80
2021/12/05 00:55:37;;;;;;;;;;;;;;;;;;5046928;28;20037;-80
2021/12/05 01:16:11;;;;;;;50.40;19.10;;;;;;;;;;5045324;28;20055;-80
2021/12/05 01:18:38;;;;;;;52.55;21.30;;;;;;;;;;5044829;28;20124;-81
2021/12/05 01:21:08;;;;;;;57.05;20.52;;;;;;;;;;5043548;28;20037;-82
2021/12/05 01:23:59;;;;;;;51.88;20.75;;;;;;;;;;5045259;28;20535;-84
2021/12/05 01:26:38;;;;;;;52.63;19.77;;;;;;;;;;5044493;28;20041;-80
2021/12/05 01:31:51;;;;;;;47.72;19.60;;;;;;;;;;5043003;28;20565;-81
2021/12/05 01:37:10;;;;;;;45.50;19.48;;;;;;;;;;5047125;28;20056;-80
2021/12/05 01:48:04;;;;;;;38.08;15.73;;;;;;;;;;5048855;28;20086;-81
2021/12/05 02:36:19;;;;;;;35.03;13.88;;;;;;;;;;5045852;28;20056;-80
2021/12/05 02:41:27;;;;;;;27.38;13.15;;;;;;;;;;5047539;28;20095;-82
2021/12/05 02:44:05;;;;;;;32.63;12.95;;;;;;;;;;5045716;28;20123;-81
2021/12/05 02:46:40;;;;;;;30.63;13.95;;;;;;;;;;5048022;28;20055;-82
2021/12/05 02:49:10;;;;;;;35.60;13.93;;;;;;;;;;5047131;28;20057;-81
2021/12/05 02:51:36;;;;;;;32.17;14.82;;;;;;;;;;5029813;28;20049;-80
2021/12/05 02:54:20;;;;;;;26.30;13.45;;;;;;;;;;5046688;28;20049;-82
2021/12/05 02:56:50;;;;;;;30.48;14.20;;;;;;;;;;5050289;28;20167;-83
2021/12/05 02:59:23;;;;;;;27.98;13.77;;;;;;;;;;5046755;28;20029;-80
2021/12/05 03:02:05;;;;;;;30.57;14.27;;;;;;;;;;5046283;28;20091;-80
2021/12/05 03:04:33;;;;;;;26.20;12.52;;;;;;;;;;5029851;28;20485;-78
2021/12/05 03:07:03;;;;;;;27.35;14.50;;;;;;;;;;5045318;28;20506;-81
2021/12/05 03:09:29;;;;;;;26.15;14.25;;;;;;;;;;5046092;28;20534;-80
2021/12/05 03:11:55;;;;;;;33.92;13.27;;;;;;;;;;5047510;28;20127;-84
2021/12/05 03:14:22;;;;;;;23.48;12.32;;;;;;;;;;5046062;28;20124;-81
2021/12/05 03:16:48;;;;;;;21.20;12.60;;;;;;;;;;5048451;28;20053;-80
2021/12/05 03:19:15;;;;;;;26.88;13.27;;;;;;;;;;5047621;28;20079;-80
2021/12/05 03:21:42;;;;;;;29.45;12.02;;;;;;;;;;5029251;28;20100;-80
2021/12/05 03:24:09;;;;;;;27.80;12.18;;;;;;;;;;5047619;28;20043;-79
2021/12/05 03:26:37;;;;;;;23.75;12.55;;;;;;;;;;5048088;28;20039;-80
2021/12/05 03:29:04;;;;;;;24.58;12.85;;;;;;;;;;5046238;28;20110;-80
2021/12/05 03:31:31;;;;;;;23.48;13.27;;;;;;;;;;5046267;28;20049;-81
2021/12/05 03:33:57;;;;;;;29.25;13.15;;;;;;;;;;5047249;28;20049;-82
2021/12/05 03:36:25;;;;;;;28.30;12.90;;;;;;;;;;5029126;28;20041;-81
2021/12/05 03:38:51;;;;;;;23.95;12.38;;;;;;;;;;5045803;28;20052;-80
2021/12/05 03:41:17;;;;;;;30.55;13.57;;;;;;;;;;5046069;28;20049;-80
2021/12/05 03:43:44;;;;;;;25.25;12.73;;;;;;;;;;5045676;28;20142;-81
2021/12/05 03:46:10;;;;;;;20.92;12.25;;;;;;;;;;5046836;28;20489;-81
2021/12/05 03:48:39;;;;;;;27.13;12.25;;;;;;;;;;5047303;28;20107;-82
2021/12/05 03:51:06;;;;;;;25.27;12.35;;;;;;;;;;5046397;28;20389;-80
2021/12/05 03:53:32;;;;;;;22.25;11.88;;;;;;;;;;5028455;28;20575;-81
2021/12/05 03:55:59;;;;;;;20.45;12.13;;;;;;;;;;5046594;28;20053;-81
2021/12/05 03:58:28;;;;;;;23.55;12.38;;;;;;;;;;5029095;28;20488;-80
2021/12/05 04:00:55;;;;;;;23.73;11.45;;;;;;;;;;5045262;28;20029;-81
2021/12/05 04:03:22;;;;;;;24.35;11.85;;;;;;;;;;5046952;28;20033;-83
2021/12/05 04:05:48;;;;;;;20.67;12.02;;;;;;;;;;5046810;28;20484;-82
2021/12/05 04:08:16;;;;;;;29.08;12.57;;;;;;;;;;5065970;28;20067;-82
2021/12/05 04:10:44;;;;;;;21.08;12.65;;;;;;;;;;5065732;28;20032;-80
2021/12/05 04:13:10;;;;;;;27.67;12.82;;;;;;;;;;5052545;28;20070;-81
2021/12/05 04:15:36;;;;;;;26.00;12.45;;;;;;;;;;5045378;28;20037;-82
2021/12/05 04:18:02;;;;;;;23.85;13.55;;;;;;;;;;5045817;28;20131;-82
2021/12/05 04:20:28;;;;;;;30.35;14.23;;;;;;;;;;5044640;28;20112;-81
2021/12/05 04:22:55;;;;;;;21.58;13.23;;;;;;;;;;5045249;28;20045;-80
2021/12/05 04:25:22;;;;;;;22.55;13.75;;;;;;;;;;5045204;28;20041;-81
2021/12/05 04:27:50;;;;;;;30.98;14.25;;;;;;;;;;5045353;28;20554;-80
2021/12/05 04:30:19;;;;;;;27.05;14.18;;;;;;;;;;5028140;28;20523;-81
2021/12/05 04:32:45;;;;;;;30.70;14.48;;;;;;;;;;5044484;28;20053;-82
2021/12/05 04:35:11;;;;;;;35.63;15.98;;;;;;;;;;5045797;28;20049;-82
2021/12/05 04:37:38;;;;;;;26.70;14.93;;;;;;;;;;5046312;28;20140;-81
2021/12/05 04:40:05;;;;;;;24.90;15.02;;;;;;;;;;5044560;28;20492;-82
2021/12/05 04:42:32;;;;;;;26.92;15.68;;;;;;;;;;5029451;28;20044;-86
2021/12/05 04:44:58;;;;;;;28.98;14.23;;;;;;;;;;5045035;28;20049;-81
2021/12/05 04:47:24;;;;;;;28.80;15.57;;;;;;;;;;5046073;28;20045;-80
2021/12/05 04:49:50;;;;;;;26.92;14.50;;;;;;;;;;5044032;28;20156;-82
2021/12/05 04:52:16;;;;;;;23.40;14.10;;;;;;;;;;5045402;28;20087;-82
2021/12/05 04:54:42;;;;;;;27.20;14.68;;;;;;;;;;5045412;28;20053;-84
2021/12/05 04:57:10;;;;;;;29.40;15.77;;;;;;;;;;5045083;28;20432;-81
2021/12/05 04:59:37;;;;;;;29.50;16.00;;;;;;;;;;5045204;28;20074;-81
2021/12/05 05:02:05;;;;;;;28.05;16.55;;;;;;;;;;5043835;28;20048;-81
2021/12/05 05:04:38;;;;;;;29.75;15.75;;;;;;;;;;5043426;28;20052;-81
2021/12/05 05:07:07;;;;;;;31.77;15.38;;;;;;;;;;5042723;28;20044;-82
2021/12/05 05:09:33;;;;;;;35.88;15.48;;;;;;;;;;5044516;28;20491;-81
2021/12/05 05:11:59;;;;;;;37.72;16.42;;;;;;;;;;5043493;28;20041;-81
2021/12/05 05:14:26;;;;;;;25.38;16.65;;;;;;;;;;5043135;28;20101;-82
2021/12/05 05:16:54;;;;;;;35.20;16.77;;;;;;;;;;5043347;28;20049;-82
2021/12/05 05:19:26;;;;;;;28.13;16.67;;;;;;;;;;5043110;28;20088;-82
2021/12/05 05:22:04;;;;;;;27.27;16.27;;;;;;;;;;5031474;28;20045;-80
2021/12/05 05:27:37;;;;;;;34.97;17.67;;;;;;;;;;5049165;28;20460;-80
2021/12/05 05:46:49;;;;;;;26.23;16.58;;;;;;;;;;5053396;28;20102;-86
2021/12/05 05:49:17;;;;;;;29.75;16.42;;;;;;;;;;5062473;28;20037;-82
2021/12/05 05:51:43;;;;;;;35.65;18.55;;;;;;;;;;5056053;28;20106;-81
2021/12/05 05:54:09;;;;;;;30.33;17.38;;;;;;;;;;5049570;28;20094;-81
2021/12/05 05:56:36;;;;;;;34.42;17.58;;;;;;;;;;5029274;28;20524;-80
2021/12/05 05:59:26;;;;;;;37.13;17.80;;;;;;;;;;5029349;28;20052;-84
2021/12/05 06:04:19;;;;;;;34.28;18.30;;;;;;;;;;5047205;28;20053;-81
2021/12/05 06:06:45;;;;;;;42.50;17.80;;;;;;;;;;5048316;28;20056;-82
2021/12/05 06:09:11;;;;;;;35.13;17.58;;;;;;;;;;5047515;28;20059;-81
2021/12/05 06:11:37;;;;;;;32.35;17.77;;;;;;;;;;5046560;28;20094;-81
2021/12/05 06:14:03;;;;;;;32.17;18.70;;;;;;;;;;5047548;28;20036;-81
2021/12/05 06:16:30;;;;;;;33.10;18.30;;;;;;;;;;5046925;28;20041;-81
2021/12/05 06:18:56;;;;;;;37.97;18.67;;;;;;;;;;5052865;28;20094;-80
2021/12/05 06:21:23;;;;;;;35.15;18.02;;;;;;;;;;5050322;28;20048;-81
2021/12/05 06:23:49;;;;;;;34.97;17.65;;;;;;;;;;5029595;28;20480;-81
2021/12/05 06:26:21;;;;;;;34.47;17.67;;;;;;;;;;5050146;28;20171;-85
2021/12/05 06:28:56;;;;;;;32.72;17.73;;;;;;;;;;5029516;28;20048;-84
2021/12/05 06:31:49;;;;;;;36.67;16.75;;;;;;;;;;5021594;28;20041;-81
2021/12/05 06:47:31;;;;;;;38.22;19.30;;;;;;;;;;5044848;28;20045;-83
2021/12/05 06:49:57;;;;;;;42.67;20.23;;;;;;;;;;5046893;28;20040;-82
2021/12/05 06:52:23;;;;;;;39.92;19.67;;;;;;;;;;5044304;28;20084;-82
2021/12/05 06:54:50;;;;;;;41.05;19.38;;;;;;;;;;5029752;28;20048;-82
2021/12/05 06:57:17;;;;;;;35.90;18.42;;;;;;;;;;5044397;28;20049;-79
2021/12/05 06:59:45;;;;;;;43.50;19.38;;;;;;;;;;5045785;28;20065;-82
2021/12/05 07:02:12;;;;;;;41.95;19.17;;;;;;;;;;5047713;28;20045;-81
2021/12/05 07:07:13;;;;;;;35.22;16.23;;;;;;;;;;5047917;28;20045;-80
2021/12/05 07:09:40;;;;;;;36.80;16.77;;;;;;;;;;5047406;28;20071;-83
2021/12/05 07:14:59;;;;;;;27.83;14.23;;;;;;;;;;5046235;28;20037;-80
2021/12/05 07:22:27;;;;;;;35.30;14.25;;;;;;;;;;5041397;28;20048;-80
2021/12/05 07:25:06;;;;;;;30.25;13.55;;;;;;;;;;5058280;28;20405;-80
2021/12/05 07:41:44;;;;;;;31.08;12.77;;;;;;;;;;5045800;28;20053;-82
2021/12/05 07:44:11;;;;;;;38.92;15.68;;;;;;;;;;5044735;28;20052;-85
2021/12/05 07:46:37;;;;;;;37.33;14.38;;;;;;;;;;5027423;28;20033;-81
2021/12/05 07:49:06;;;;;;;33.30;14.95;;;;;;;;;;5028482;28;20055;-82
2021/12/05 07:51:32;;;;;;;38.45;14.40;;;;;;;;;;5044680;28;20447;-82
2021/12/05 08:15:17;;;;;;;36.15;12.98;;;;;;;;;;5044087;28;19925;-83
2021/12/05 08:17:51;;;;;;;36.67;13.05;;;;;;;;;;5045503;28;20045;-83
2021/12/05 08:20:18;;;;;;;29.45;13.13;;;;;;;;;;5057445;28;20515;-83
2021/12/05 08:22:44;;;;;;;27.05;12.55;;;;;;;;;;5043853;28;20075;-83
2021/12/05 08:25:12;;;;;;;29.30;13.38;;;;;;;;;;5043241;28;20508;-82
2021/12/05 08:27:42;;;;;;;32.03;14.15;;;;;;;;;;5044005;28;20045;-82
2021/12/05 08:30:13;;;;;;;33.03;13.93;;;;;;;;;;5043082;28;20068;-83
2021/12/05 09:21:50;;;;;;;31.73;15.27;;;;;;;;;;5042554;28;20131;-79
2021/12/05 10:03:06;;;;;;;37.28;17.13;;;;;;;;;;5040739;28;20079;-81
2021/12/05 10:13:21;;;;;;;51.05;30.80;;;;;;;;;;5049029;28;20090;-79
2021/12/05 10:15:57;;;;;;;53.83;28.15;;;;;;;;;;5047936;28;20094;-79
2021/12/05 10:38:18;;;;;;;39.53;20.13;;;;;;;;;;5048843;28;20389;-80
2021/12/05 10:41:01;;;;;;;72.55;42.30;;;;;;;;;;5045588;28;20096;-80
2021/12/05 10:43:28;;;;;;;45.50;24.27;;;;;;;;;;5030396;28;20056;-79
2021/12/05 10:45:56;;;;;;;42.47;23.70;;;;;;;;;;5048943;28;20068;-80
2021/12/05 10:48:27;;;;;;;38.65;20.42;;;;;;;;;;5046827;28;20523;-80
2021/12/05 10:50:57;;;;;;;41.70;22.77;;;;;;;;;;5048668;28;20033;-78
2021/12/05 10:53:23;;;;;;;40.30;21.30;;;;;;;;;;5048167;28;20040;-80
2021/12/05 10:55:55;;;;;;;38.22;21.38;;;;;;;;;;5046474;28;20045;-79
2021/12/05 10:58:23;;;;;;;35.90;20.23;;;;;;;;;;5046412;28;20060;-78
2021/12/05 11:00:49;;;;;;;53.17;34.50;;;;;;;;;;5047011;28;20521;-78
2021/12/05 11:03:16;;;;;;;41.60;23.70;;;;;;;;;;5045681;28;20080;-78
2021/12/05 11:05:43;;;;;;;38.97;24.00;;;;;;;;;;5044381;28;20049;-78
2021/12/05 11:08:28;;;;;;;33.90;17.27;;;;;;;;;;5049255;28;20496;-78
2021/12/05 11:11:14;;;;;;;31.70;17.63;;;;;;;;;;5045268;28;21192;-79
2021/12/05 11:13:43;;;;;;;38.40;18.58;;;;;;;;;;5023687;28;20049;-79
2021/12/05 11:16:27;;;;;;;46.42;19.70;;;;;;;;;;5046120;28;20437;-79
2021/12/05 11:18:54;;;;;;;38.65;21.00;;;;;;;;;;5045113;28;20067;-79
2021/12/05 11:21:34;;;;;;;35.88;21.55;;;;;;;;;;5045164;28;20041;-78
2021/12/05 11:24:12;;;;;;;59.30;34.30;;;;;;;;;;5045394;28;20052;-78
2021/12/05 11:26:40;;;;;;;35.72;20.20;;;;;;;;;;5046838;28;20080;-78
2021/12/05 11:29:06;;;;;;;32.85;19.80;;;;;;;;;;5046104;28;20048;-79
2021/12/05 11:31:34;;;;;;;42.45;21.00;;;;;;;;;;5047225;28;20510;-79
2021/12/05 11:34:00;;;;;;;40.28;17.05;;;;;;;;;;5045370;28;20048;-79
2021/12/05 11:36:29;;;;;;;36.65;18.20;;;;;;;;;;5044141;28;20052;-79
2021/12/05 11:38:56;;;;;;;42.65;20.52;;;;;;;;;;5045362;28;20065;-78
2021/12/05 11:41:23;;;;;;;42.97;21.15;;;;;;;;;;5043201;28;20579;-78
2021/12/05 11:43:58;;;;;;;37.67;18.75;;;;;;;;;;5045935;28;20580;-78
2021/12/05 11:46:27;;;;;;;46.80;18.77;;;;;;;;;;5043734;28;20444;-79
2021/12/05 11:48:56;;;;;;;31.38;17.05;;;;;;;;;;5044787;28;20111;-78
2021/12/05 11:51:29;;;;;;;34.38;17.80;;;;;;;;;;5048167;28;20040;-79
2021/12/05 11:54:00;;;;;;;36.60;19.63;;;;;;;;;;5047022;28;20520;-80
2021/12/05 11:56:26;;;;;;;35.63;19.98;;;;;;;;;;5046332;28;20504;-80
2021/12/05 11:59:07;;;;;;;36.15;19.10;;;;;;;;;;5045549;28;20132;-81
2021/12/05 12:01:35;;;;;;;32.88;18.13;;;;;;;;;;5045971;28;20064;-80
2021/12/05 12:04:02;;;;;;;43.35;18.35;;;;;;;;;;5045743;28;20060;-80
2021/12/05 12:06:28;;;;;;;38.95;19.98;;;;;;;;;;5045176;28;20575;-80
2021/12/05 12:08:55;;;;;;;32.35;18.52;;;;;;;;;;5062978;28;20140;-80
2021/12/05 12:11:22;;;;;;;35.20;16.73;;;;;;;;;;5046439;28;20109;-82
2021/12/05 12:13:50;;;;;;;37.10;16.95;;;;;;;;;;5047514;28;20093;-80
2021/12/05 12:16:16;;;;;;;26.05;15.90;;;;;;;;;;5045479;28;20058;-80
2021/12/05 12:18:47;;;;;;;32.47;15.50;;;;;;;;;;5048605;28;20730;-80
2021/12/05 12:21:21;;;;;;;35.53;15.40;;;;;;;;;;5048643;28;20041;-79
2021/12/05 12:23:55;;;;;;;28.95;16.13;;;;;;;;;;5045741;28;20599;-79
2021/12/05 12:26:22;;;;;;;37.92;16.63;;;;;;;;;;5046998;28;20079;-79
2021/12/05 12:28:48;;;;;;;24.63;15.23;;;;;;;;;;5045336;28;20567;-80
2021/12/05 12:31:17;;;;;;;25.58;15.15;;;;;;;;;;5046119;28;20049;-80
2021/12/05 12:33:54;;;;;;;27.55;15.25;;;;;;;;;;5046668;28;20498;-80
2021/12/05 12:36:32;;;;;;;28.20;14.60;;;;;;;;;;5047169;28;20400;-80
2021/12/05 12:39:03;;;;;;;28.25;15.00;;;;;;;;;;5045590;28;20507;-79
2021/12/05 12:41:30;;;;;;;28.20;14.93;;;;;;;;;;5044485;28;20060;-81
2021/12/05 12:44:07;;;;;;;24.90;14.48;;;;;;;;;;5045695;28;20079;-81
2021/12/05 12:46:36;;;;;;;28.50;14.88;;;;;;;;;;5045393;28;20602;-81
2021/12/05 12:49:17;;;;;;;26.27;13.82;;;;;;;;;;5044876;28;20110;-78
2021/12/05 12:51:48;;;;;;;24.65;13.23;;;;;;;;;;5046239;28;20085;-78
2021/12/05 12:54:19;;;;;;;26.58;14.10;;;;;;;;;;5044627;28;20495;-80
2021/12/05 12:57:03;;;;;;;28.08;14.93;;;;;;;;;;5046682;28;20091;-78
2021/12/05 12:59:31;;;;;;;21.40;14.65;;;;;;;;;;5046124;28;20220;-81
2021/12/05 13:02:37;;;;;;;27.35;15.00;;;;;;;;;;5044907;28;20049;-82
2021/12/05 13:05:05;;;;;;;27.17;14.57;;;;;;;;;;5045171;28;20049;-81
2021/12/05 13:10:27;;;;;;;29.08;13.70;;;;;;;;;;5046716;28;20055;-80
2021/12/05 13:12:59;;;;;;;28.25;15.27;;;;;;;;;;5044695;28;20531;-80
2021/12/05 13:15:42;;;;;;;22.48;13.52;;;;;;;;;;5028020;28;20124;-80
2021/12/05 13:18:08;;;;;;;27.63;15.20;;;;;;;;;;5044905;28;20064;-81
2021/12/05 13:20:43;;;;;;;29.65;14.40;;;;;;;;;;5044104;28;20041;-80
2021/12/05 13:23:12;;;;;;;29.13;15.68;;;;;;;;;;5045047;28;20045;-80
2021/12/05 13:25:57;;;;;;;28.60;16.20;;;;;;;;;;5046086;28;20049;-80
2021/12/05 13:28:28;;;;;;;36.35;18.60;;;;;;;;;;5044152;28;20084;-79
2021/12/05 13:30:54;;;;;;;34.03;19.42;;;;;;;;;;5046216;28;20472;-79
2021/12/05 13:33:22;;;;;;;30.88;16.67;;;;;;;;;;5027760;28;20128;-82
2021/12/05 13:35:48;;;;;;;28.02;15.45;;;;;;;;;;5064750;28;20056;-81
2021/12/05 13:38:31;;;;;;;29.98;16.02;;;;;;;;;;5045653;28;20076;-81
2021/12/05 13:41:14;;;;;;;36.70;17.38;;;;;;;;;;5045471;28;20089;-81
2021/12/05 13:43:41;;;;;;;31.77;18.15;;;;;;;;;;5050066;28;20049;-80
2021/12/05 13:46:26;;;;;;;34.88;18.30;;;;;;;;;;5047214;28;20037;-80
2021/12/05 13:48:52;;;;;;;31.23;17.50;;;;;;;;;;5049915;28;20088;-80
2021/12/05 13:51:22;;;;;;;30.95;17.85;;;;;;;;;;5049261;28;20045;-80
2021/12/05 13:53:51;;;;;;;31.95;17.33;;;;;;;;;;5049501;28;20051;-80
2021/12/05 13:56:26;;;;;;;32.70;17.35;;;;;;;;;;5049760;28;20452;-80
2021/12/05 13:58:53;;;;;;;31.55;18.17;;;;;;;;;;5047764;28;20604;-80
2021/12/05 14:01:26;;;;;;;32.28;16.90;;;;;;;;;;5029010;28;20081;-80
2021/12/05 14:04:01;;;;;;;32.75;16.52;;;;;;;;;;5028936;28;20056;-81
2021/12/05 14:06:36;;;;;;;30.85;16.60;;;;;;;;;;5027902;28;20100;-80
2021/12/05 14:09:08;;;;;;;30.85;17.13;;;;;;;;;;5043479;28;20505;-80
2021/12/05 14:11:41;;;;;;;36.15;18.67;;;;;;;;;;5049179;28;20080;-80
2021/12/05 14:14:08;;;;;;;35.20;17.38;;;;;;;;;;5049439;28;20076;-80
2021/12/05 14:16:36;;;;;;;26.50;17.80;;;;;;;;;;5048114;28;20045;-80
2021/12/05 14:19:04;;;;;;;26.55;17.77;;;;;;;;;;5049245;28;20040;-80
2021/12/05 14:21:30;;;;;;;44.45;24.83;;;;;;;;;;5048774;28;20045;-80
2021/12/05 14:23:58;;;;;;;37.15;18.95;;;;;;;;;;5048338;28;20096;-80
2021/12/05 14:26:26;;;;;;;34.10;17.85;;;;;;;;;;5048544;28;20500;-80
2021/12/05 14:29:18;;;;;;;28.73;17.98;;;;;;;;;;5047968;28;20057;-81
2021/12/05 14:31:46;;;;;;;31.42;18.67;;;;;;;;;;5045427;28;20071;-80
2021/12/05 14:34:13;;;;;;;33.45;19.70;;;;;;;;;;5045984;28;20052;-80
2021/12/05 14:36:41;;;;;;;33.10;18.77;;;;;;;;;;5046929;28;20440;-79
2021/12/05 14:39:07;;;;;;;28.55;17.80;;;;;;;;;;5044944;28;20037;-80
2021/12/05 14:41:33;;;;;;;27.50;19.00;;;;;;;;;;5047786;28;20057;-80
2021/12/05 14:43:59;;;;;;;29.63;18.95;;;;;;;;;;5046603;28;20119;-79
2021/12/05 14:46:26;;;;;;;32.80;19.52;;;;;;;;;;5048025;28;20049;-80
2021/12/05 14:49:01;;;;;;;30.10;19.23;;;;;;;;;;5049543;28;20053;-82
2021/12/05 14:51:39;;;;;;;32.75;19.25;;;;;;;;;;5049208;28;20048;-81
2021/12/05 14:54:05;;;;;;;30.75;18.85;;;;;;;;;;5046865;28;20215;-81
2021/12/05 14:56:32;;;;;;;30.35;19.40;;;;;;;;;;5045886;28;20045;-83
2021/12/05 14:59:12;;;;;;;30.67;19.23;;;;;;;;;;5047165;28;20137;-81
2021/12/05 15:01:40;;;;;;;28.17;18.55;;;;;;;;;;5047912;28;20057;-81
2021/12/05 15:04:07;;;;;;;32.53;20.17;;;;;;;;;;5045984;28;20130;-82
2021/12/05 15:06:35;;;;;;;43.13;22.00;;;;;;;;;;5029715;28;20045;-82
2021/12/05 15:09:05;;;;;;;40.90;23.45;;;;;;;;;;5048396;28;20049;-80
2021/12/05 15:11:32;;;;;;;32.95;19.98;;;;;;;;;;5048021;28;20053;-81
2021/12/05 15:14:03;;;;;;;31.63;19.25;;;;;;;;;;5046053;28;20045;-81
2021/12/05 15:16:29;;;;;;;32.00;19.38;;;;;;;;;;5047149;28;20080;-81
2021/12/05 15:18:55;;;;;;;31.02;18.75;;;;;;;;;;5047603;28;20044;-80
2021/12/05 15:21:21;;;;;;;28.58;18.45;;;;;;;;;;5029082;28;20045;-80
2021/12/05 15:23:47;;;;;;;28.60;17.50;;;;;;;;;;5046433;28;20327;-80
2021/12/05 15:26:14;;;;;;;28.85;18.67;;;;;;;;;;5046661;28;20056;-81
2021/12/05 15:28:40;;;;;;;31.38;18.05;;;;;;;;;;5047321;28;20036;-81
2021/12/05 15:31:07;;;;;;;29.55;17.75;;;;;;;;;;5046948;28;20098;-81
2021/12/05 15:33:34;;;;;;;27.98;18.50;;;;;;;;;;5045401;28;20102;-80
2021/12/05 15:36:01;;;;;;;25.67;18.05;;;;;;;;;;5029416;28;20412;-80
2021/12/05 15:38:30;;;;;;;28.25;17.90;;;;;;;;;;5045131;28;20048;-80
2021/12/05 15:40:58;;;;;;;29.25;17.92;;;;;;;;;;5045741;28;20091;-80
2021/12/05 15:43:26;;;;;;;28.70;19.27;;;;;;;;;;5045885;28;20052;-79
2021/12/05 15:45:53;;;;;;;32.75;19.27;;;;;;;;;;5045242;28;20044;-80
2021/12/05 15:48:30;;;;;;;29.45;18.90;;;;;;;;;;5046438;28;20044;-79
2021/12/05 15:50:57;;;;;;;26.55;17.67;;;;;;;;;;5028694;28;20120;-78
2021/12/05 15:53:25;;;;;;;29.55;18.88;;;;;;;;;;5029001;28;20045;-79
2021/12/05 15:56:02;;;;;;;30.67;18.75;;;;;;;;;;5045823;28;20079;-79
2021/12/05 15:58:38;;;;;;;29.58;18.45;;;;;;;;;;5045146;28;20455;-79
2021/12/05 16:01:06;;;;;;;27.08;18.50;;;;;;;;;;5046480;28;20045;-80
2021/12/05 16:03:41;;;;;;;24.70;16.92;;;;;;;;;;5048175;28;20048;-79
2021/12/05 16:06:08;;;;;;;25.70;16.92;;;;;;;;;;5045297;28;20053;-80
2021/12/05 16:08:34;;;;;;;25.73;17.02;;;;;;;;;;5046156;28;20037;-81
2021/12/05 16:11:01;;;;;;;28.92;19.63;;;;;;;;;;5046735;28;20040;-80
2021/12/05 16:13:33;;;;;;;31.98;18.73;;;;;;;;;;5044862;28;20456;-80
2021/12/05 16:16:08;;;;;;;26.45;18.35;;;;;;;;;;5028256;28;20055;-79
2021/12/05 16:18:36;;;;;;;29.17;17.92;;;;;;;;;;5046067;28;20128;-81
2021/12/05 16:21:05;;;;;;;29.35;18.38;;;;;;;;;;5045855;28;20422;-81
2021/12/05 16:23:35;;;;;;;28.08;18.67;;;;;;;;;;5044742;28;20061;-78
2021/12/05 16:26:09;;;;;;;24.10;17.38;;;;;;;;;;5045317;28;20098;-79
2021/12/05 16:28:39;;;;;;;27.35;18.42;;;;;;;;;;5037392;28;20051;-79
2021/12/05 16:31:08;;;;;;;24.88;16.73;;;;;;;;;;5040129;28;20064;-79
2021/12/05 16:33:34;;;;;;;26.13;17.90;;;;;;;;;;5039518;28;20088;-78
2021/12/05 16:36:01;;;;;;;24.25;17.38;;;;;;;;;;5024038;28;20083;-79
2021/12/05 16:38:30;;;;;;;26.50;17.63;;;;;;;;;;5024084;28;20060;-79
2021/12/05 16:41:05;;;;;;;23.10;15.77;;;;;;;;;;5024598;28;20061;-80
2021/12/05 16:43:32;;;;;;;21.80;16.20;;;;;;;;;;5040822;28;20055;-81
2021/12/05 16:46:04;;;;;;;22.90;15.75;;;;;;;;;;5026288;28;20079;-79
2021/12/05 16:48:30;;;;;;;23.48;16.17;;;;;;;;;;5059036;28;20059;-80
2021/12/05 16:51:09;;;;;;;23.52;16.85;;;;;;;;;;5042147;28;20408;-81
2021/12/05 16:53:43;;;;;;;26.52;15.95;;;;;;;;;;5043942;28;20049;-79
2021/12/05 16:56:10;;;;;;;23.42;17.10;;;;;;;;;;5041665;28;20746;-79
2021/12/05 16:58:38;;;;;;;25.77;17.77;;;;;;;;;;5044224;28;20504;-79
2021/12/05 17:01:07;;;;;;;22.75;16.45;;;;;;;;;;5043071;28;20052;-78
2021/12/05 17:03:33;;;;;;;30.77;17.33;;;;;;;;;;5043616;28;20045;-79
2021/12/05 17:06:09;;;;;;;25.35;17.70;;;;;;;;;;5042097;28;20059;-79
2021/12/05 17:08:40;;;;;;;24.52;17.08;;;;;;;;;;5043079;28;20060;-78
2021/12/05 17:11:10;;;;;;;23.20;17.38;;;;;;;;;;5047212;28;20043;-79
2021/12/05 17:13:42;;;;;;;22.38;16.92;;;;;;;;;;5043792;28;20045;-78
2021/12/05 17:16:09;;;;;;;23.80;17.02;;;;;;;;;;5045427;28;20161;-78
2021/12/05 17:18:37;;;;;;;26.35;18.27;;;;;;;;;;5048913;28;20072;-77
2021/12/05 17:21:06;;;;;;;25.98;17.48;;;;;;;;;;5048216;28;20056;-79
2021/12/05 17:23:50;;;;;;;26.05;17.38;;;;;;;;;;5047598;28;20048;-78
2021/12/05 17:26:21;;;;;;;20.67;15.40;;;;;;;;;;5047093;28;20135;-78
2021/12/05 17:28:52;;;;;;;20.08;16.20;;;;;;;;;;5047674;28;20057;-79
2021/12/05 17:31:23;;;;;;;24.17;17.25;;;;;;;;;;5045687;28;20076;-80
2021/12/05 17:33:54;;;;;;;25.85;18.30;;;;;;;;;;5046246;28;20052;-80
2021/12/05 17:36:22;;;;;;;23.98;17.20;;;;;;;;;;5046117;28;20052;-80
2021/12/05 17:38:50;;;;;;;23.00;16.63;;;;;;;;;;5052697;28;20126;-79
2021/12/05 17:41:16;;;;;;;23.20;17.60;;;;;;;;;;5051523;28;20063;-79
2021/12/05 17:43:43;;;;;;;23.70;17.38;;;;;;;;;;5049040;28;20045;-78
2021/12/05 17:46:09;;;;;;;21.95;16.67;;;;;;;;;;5048098;28;20048;-79
2021/12/05 17:48:35;;;;;;;23.45;16.65;;;;;;;;;;5028326;28;20044;-77
2021/12/05 17:51:05;;;;;;;20.63;16.05;;;;;;;;;;5045937;28;20045;-78
2021/12/05 17:53:32;;;;;;;21.55;17.15;;;;;;;;;;5028876;28;20053;-80
2021/12/05 17:56:03;;;;;;;21.80;17.58;;;;;;;;;;5046172;28;20052;-77
2021/12/05 18:03:56;;;;;;;26.73;19.73;;;;;;;;;;5033904;28;20048;-77
2021/12/05 18:06:25;;;;;;;25.50;19.05;;;;;;;;;;5043980;28;20070;-79
2021/12/05 18:08:52;;;;;;;23.90;18.63;;;;;;;;;;5044572;28;20041;-77
2021/12/05 18:11:24;;;;;;;22.08;17.85;;;;;;;;;;5046075;28;20049;-79
2021/12/05 18:13:54;;;;;;;23.20;18.38;;;;;;;;;;5042114;28;20108;-78
2021/12/05 18:16:24;;;;;;;23.20;17.67;;;;;;;;;;5039784;28;20107;-78
2021/12/05 18:18:54;;;;;;;21.20;17.48;;;;;;;;;;5041922;28;20052;-78
2021/12/05 18:21:20;;;;;;;20.05;16.08;;;;;;;;;;5043125;28;20468;-78
2021/12/05 18:23:47;;;;;;;19.85;15.70;;;;;;;;;;5045237;28;20144;-78
2021/12/05 18:26:13;;;;;;;19.00;14.93;;;;;;;;;;5045873;28;20401;-77
2021/12/05 18:28:40;;;;;;;17.65;14.60;;;;;;;;;;5025986;28;20044;-78
2021/12/05 18:31:08;;;;;;;18.50;14.98;;;;;;;;;;5042463;28;20140;-77
2021/12/05 18:33:34;;;;;;;18.52;14.95;;;;;;;;;;5043369;28;20053;-78
2021/12/05 18:36:01;;;;;;;17.25;13.55;;;;;;;;;;5042890;28;20347;-79
2021/12/05 18:38:27;;;;;;;19.20;14.25;;;;;;;;;;5042944;28;20052;-79
2021/12/05 18:40:56;;;;;;;15.27;12.95;;;;;;;;;;5042387;28;20075;-78
2021/12/05 18:43:26;;;;;;;14.82;12.50;;;;;;;;;;5041375;28;20444;-78
2021/12/05 18:45:54;;;;;;;15.93;13.15;;;;;;;;;;5026234;28;20048;-79
2021/12/05 18:48:20;;;;;;;16.15;13.68;;;;;;;;;;5041942;28;20558;-78
2021/12/05 18:50:48;;;;;;;15.27;13.00;;;;;;;;;;5043511;28;20045;-80
2021/12/05 18:53:16;;;;;;;18.00;14.13;;;;;;;;;;5042935;28;20040;-78
2021/12/05 18:55:43;;;;;;;16.67;13.68;;;;;;;;;;5043426;28;20040;-79
2021/12/05 18:58:10;;;;;;;15.20;12.93;;;;;;;;;;5041722;28;20045;-78
2021/12/05 19:04:21;;;;;;;17.75;13.10;;;;;;;;;;5054003;28;20095;-78
2021/12/05 19:06:18;;;;;;;22.90;14.77;;;;;;;;;;5042547;28;20106;-78
2021/12/05 19:11:47;;;;;;;22.33;16.60;;;;;;;;;;5042987;28;20045;-78
2021/12/05 19:14:33;;;;;;;24.42;16.80;;;;;;;;;;5043033;28;20370;-77
2021/12/05 19:17:05;;;;;;;26.27;17.33;;;;;;;;;;5042859;28;20060;-77
2021/12/05 19:19:32;;;;;;;29.38;18.42;;;;;;;;;;5025299;28;20037;-78
2021/12/05 19:21:59;;;;;;;26.70;18.00;;;;;;;;;;5035247;28;20052;-79
2021/12/05 19:24:28;;;;;;;26.17;17.00;;;;;;;;;;5041095;28;20045;-81
2021/12/05 19:26:55;;;;;;;24.67;16.95;;;;;;;;;;5042216;28;20075;-78
2021/12/05 19:29:22;;;;;;;24.30;15.70;;;;;;;;;;5041589;28;20075;-78
2021/12/05 19:31:50;;;;;;;23.20;16.20;;;;;;;;;;5041571;28;20106;-79
2021/12/05 19:34:16;;;;;;;22.13;15.82;;;;;;;;;;5041299;28;20079;-78
2021/12/05 19:36:48;;;;;;;24.60;17.70;;;;;;;;;;5024932;28;20095;-79
2021/12/05 19:39:15;;;;;;;22.92;16.98;;;;;;;;;;5041549;28;20792;-79
2021/12/05 19:41:42;;;;;;;23.73;16.55;;;;;;;;;;5041799;28;20734;-79
2021/12/05 19:44:08;;;;;;;26.80;17.40;;;;;;;;;;5041163;28;20107;-77
2021/12/05 19:46:36;;;;;;;25.08;17.95;;;;;;;;;;5041805;28;20767;-79
2021/12/05 19:49:02;;;;;;;25.15;18.02;;;;;;;;;;5040729;28;20942;-79
2021/12/05 19:51:28;;;;;;;24.33;17.27;;;;;;;;;;5048075;28;20385;-80
2021/12/05 19:53:55;;;;;;;26.08;17.98;;;;;;;;;;5040015;28;20086;-79
2021/12/05 19:56:22;;;;;;;25.13;17.77;;;;;;;;;;5039940;28;20045;-80
2021/12/05 19:58:48;;;;;;;26.17;18.08;;;;;;;;;;5023976;28;20126;-79
2021/12/05 20:01:15;;;;;;;24.50;17.88;;;;;;;;;;5040967;28;20616;-80
2021/12/05 20:03:41;;;;;;;28.08;18.50;;;;;;;;;;5042111;28;20045;-78
2021/12/05 20:06:07;;;;;;;24.63;17.67;;;;;;;;;;5041938;28;20049;-82
2021/12/05 20:08:34;;;;;;;25.92;17.55;;;;;;;;;;5041629;28;20080;-79